< Cyclone 200808 2008 Season Cyclone 200815 >
Cyclone 200811 (Nicholas)
General InformationTrack Information on Google MapsDetailed Wind InformationList of All Images || ResourceGoogle EarthGE AnimationAtom FeedGeoJSON
Detalied Best Track (Time Zone = UTC)
Year Month Day Hour Lat. Long. Pressure (hPa) Wind (kt) Class Image Chart
2008 2 11 00 -15.9 121.0 996 20 2 Image --
2008 2 11 06 -15.9 121.0 996 25 2 Image --
2008 2 11 12 -15.9 121.0 994 25 2 Image --
2008 2 11 18 -15.8 120.8 994 25 2 Image --
2008 2 12 00 -15.7 120.5 992 25 2 Image --
2008 2 12 06 -15.5 120.4 990 30 2 Image --
2008 2 12 12 -15.0 120.3 986 35 3 Image --
2008 2 12 18 -14.8 120.3 986 35 3 Image --
2008 2 13 00 -14.5 120.4 986 35 3 Image --
2008 2 13 06 -14.6 120.9 986 35 3 Image --
2008 2 13 12 -14.7 121.4 986 35 3 Image --
2008 2 13 18 -15.2 121.3 990 30 2 Image --
2008 2 14 00 -15.5 121.0 992 30 2 Image --
2008 2 14 06 -15.7 120.7 986 45 3 Image --
2008 2 14 12 -15.8 120.4 978 50 4 Image --
2008 2 14 18 -15.7 119.9 974 50 4 Image --
2008 2 15 00 -15.7 119.8 970 55 4 Image --
2008 2 15 06 -15.9 119.5 964 65 5 Image --
2008 2 15 12 -16.1 119.0 960 65 5 Image --
2008 2 15 18 -15.9 118.6 958 70 5 Image --
2008 2 16 00 -16.3 118.3 956 75 5 Image --
2008 2 16 06 -17.0 118.0 948 80 5 Image --
2008 2 16 12 -17.7 117.2 948 80 5 Image --
2008 2 16 18 -17.5 116.9 948 80 5 Image --
2008 2 17 00 -17.9 116.4 948 80 5 Image --
2008 2 17 06 -18.2 115.8 948 80 5 Image --
2008 2 17 12 -18.6 115.3 956 75 5 Image --
2008 2 17 18 -18.8 114.8 948 80 5 Image --
2008 2 18 00 -19.3 114.4 956 75 5 Image --
2008 2 18 06 -19.9 114.1 956 75 5 Image --
2008 2 18 12 -20.3 113.9 968 60 4 Image --
2008 2 18 18 -20.8 113.5 970 60 4 Image --
2008 2 19 00 -21.4 113.4 972 55 4 Image --
2008 2 19 06 -21.9 113.5 972 55 4 Image --
2008 2 19 12 -22.3 113.6 980 50 4 Image --
2008 2 19 18 -22.9 113.6 980 45 3 Image --
2008 2 20 00 -23.5 113.7 988 35 3 Image --
2008 2 20 06 -24.5 114.1 994 30 2 Image --
2008 2 20 12 -25.4 114.6 996 30 2 Image --
< Cyclone 200808 2008 Season Cyclone 200815 >

Help